Time;durP1;ratioP1;P1;durP2;ratioP2;P2;SDS_P1;SDS_P2;PMS_P1;PMS_P2;Temp;Humidity;BMP_temperature;BMP_pressure;BME280_temperature;BME280_humidity;BME280_pressure;Samples;Min_cycle;Max_cycle;Signal;HPM_P1;HPM_P2
2023/12/04 00:00:32;;;;;;;13.88;8.75;;;;;;;1.14;100.00;101176.00;5033548;28;20033;-72
2023/12/04 00:02:57;;;;;;;17.30;9.13;;;;;;;1.12;100.00;101175.13;5033410;28;20064;-72
2023/12/04 00:05:23;;;;;;;17.00;9.95;;;;;;;1.11;100.00;101186.28;5033751;28;20100;-72
2023/12/04 00:07:48;;;;;;;14.50;9.25;;;;;;;1.08;100.00;101174.25;5032934;28;20044;-72
2023/12/04 00:10:14;;;;;;;19.40;9.68;;;;;;;1.08;100.00;101171.66;5033488;28;20159;-72
2023/12/04 00:12:39;;;;;;;14.90;9.05;;;;;;;1.11;100.00;101165.66;5032621;28;20244;-72
2023/12/04 00:15:05;;;;;;;13.32;8.20;;;;;;;1.13;100.00;101166.53;5033561;28;20040;-72
2023/12/04 00:17:30;;;;;;;12.77;8.27;;;;;;;1.10;100.00;101162.22;5032358;28;20040;-72
2023/12/04 00:19:56;;;;;;;21.58;9.70;;;;;;;1.11;100.00;101155.31;5033689;28;20033;-72
2023/12/04 00:22:21;;;;;;;14.32;8.88;;;;;;;1.11;100.00;101157.91;5036520;28;20430;-72
2023/12/04 00:24:46;;;;;;;13.00;8.40;;;;;;;1.13;100.00;101156.22;5033519;28;20454;-72
2023/12/04 00:27:12;;;;;;;15.85;9.18;;;;;;;1.12;100.00;101151.91;5033668;28;20232;-72
2023/12/04 00:29:37;;;;;;;16.05;9.68;;;;;;;1.11;100.00;101142.44;5033269;28;20071;-72
2023/12/04 00:32:03;;;;;;;16.50;9.98;;;;;;;1.08;100.00;101140.72;5033517;28;20315;-72
2023/12/04 00:34:28;;;;;;;15.68;9.10;;;;;;;1.09;100.00;101141.56;5033464;28;20045;-72
2023/12/04 00:36:53;;;;;;;16.98;9.45;;;;;;;1.07;100.00;101131.25;5033935;28;20033;-72
2023/12/04 00:39:19;;;;;;;18.80;10.18;;;;;;;1.08;100.00;101126.97;5033373;28;20185;-72
2023/12/04 00:41:44;;;;;;;13.63;9.02;;;;;;;1.07;100.00;101120.91;5033572;28;20037;-72
2023/12/04 00:44:09;;;;;;;16.33;9.27;;;;;;;1.09;100.00;101119.25;5033611;28;20363;-72
2023/12/04 00:46:35;;;;;;;11.43;8.02;;;;;;;1.12;100.00;101126.13;5033435;28;20038;-73
2023/12/04 00:49:00;;;;;;;16.08;9.73;;;;;;;1.11;100.00;101126.94;5033450;28;20320;-72
2023/12/04 00:51:26;;;;;;;15.90;9.15;;;;;;;1.09;100.00;101121.81;5033958;28;20037;-72
2023/12/04 00:53:51;;;;;;;17.48;8.98;;;;;;;1.08;100.00;101122.66;5033760;28;20036;-72
2023/12/04 00:56:18;;;;;;;15.45;9.10;;;;;;;1.09;100.00;101119.25;5033543;28;20086;-72
2023/12/04 00:58:44;;;;;;;14.05;8.52;;;;;;;1.09;100.00;101123.50;5033250;28;20539;-72
2023/12/04 01:01:09;;;;;;;14.15;9.05;;;;;;;1.10;100.00;101120.09;5033635;28;20045;-72
2023/12/04 01:03:34;;;;;;;12.35;8.13;;;;;;;1.12;100.00;101118.38;5033094;28;20063;-72
2023/12/04 01:06:00;;;;;;;14.18;8.57;;;;;;;1.13;100.00;101114.94;5033529;28;20039;-72
2023/12/04 01:08:25;;;;;;;13.20;8.25;;;;;;;1.14;100.00;101111.50;5033582;28;20052;-72
2023/12/04 01:10:50;;;;;;;14.45;8.57;;;;;;;1.16;100.00;101104.63;5033594;28;20351;-72
2023/12/04 01:13:16;;;;;;;14.02;9.00;;;;;;;1.12;100.00;101102.91;5033438;28;20041;-72
2023/12/04 01:15:42;;;;;;;14.63;9.32;;;;;;;1.10;100.00;101089.97;5033153;28;20152;-73
2023/12/04 01:18:07;;;;;;;15.48;8.98;;;;;;;1.13;100.00;101079.69;5032984;28;20100;-72
2023/12/04 01:20:33;;;;;;;14.02;8.60;;;;;;;1.20;100.00;101085.72;5033657;28;20275;-73
2023/12/04 01:22:58;;;;;;;11.88;8.43;;;;;;;1.18;100.00;101090.00;5032640;28;20045;-72
2023/12/04 01:25:23;;;;;;;15.52;9.45;;;;;;;1.13;100.00;101084.84;5033194;28;20070;-72
2023/12/04 01:27:49;;;;;;;14.25;8.48;;;;;;;1.12;100.00;101090.00;5032561;28;20052;-72
2023/12/04 01:30:14;;;;;;;13.05;8.48;;;;;;;1.13;100.00;101082.25;5035794;28;20037;-72
2023/12/04 01:32:40;;;;;;;13.20;8.52;;;;;;;1.15;100.00;101084.84;5035667;28;20033;-72
2023/12/04 01:35:06;;;;;;;13.95;7.68;;;;;;;1.16;100.00;101073.66;5036629;28;20079;-72
2023/12/04 01:37:31;;;;;;;15.15;8.60;;;;;;;1.14;100.00;101065.06;5036005;28;20044;-72
2023/12/04 01:39:57;;;;;;;11.90;7.80;;;;;;;1.15;100.00;101061.63;5036616;28;20044;-72
2023/12/04 01:42:22;;;;;;;16.85;9.13;;;;;;;1.14;100.00;101057.31;5036387;28;20037;-72
2023/12/04 01:44:47;;;;;;;14.20;8.57;;;;;;;1.16;100.00;101053.00;5035819;28;20072;-72
2023/12/04 01:47:14;;;;;;;13.77;9.02;;;;;;;1.16;100.00;101058.19;5035668;28;20104;-72
2023/12/04 01:49:39;;;;;;;12.65;8.30;;;;;;;1.12;100.00;101047.00;5036212;28;20064;-72
2023/12/04 01:52:05;;;;;;;11.68;7.90;;;;;;;1.10;100.00;101050.44;5036496;28;20044;-73
2023/12/04 01:54:31;;;;;;;13.52;8.35;;;;;;;1.13;100.00;101043.56;5018209;28;20029;-72
2023/12/04 01:56:57;;;;;;;13.43;8.68;;;;;;;1.17;100.00;101046.16;5036331;28;20056;-72
2023/12/04 01:59:25;;;;;;;15.60;8.90;;;;;;;1.11;100.00;101037.56;5035809;28;20045;-72
2023/12/04 02:01:52;;;;;;;16.77;8.85;;;;;;;1.17;100.00;101041.84;5036380;28;20297;-72
2023/12/04 02:04:17;;;;;;;12.45;7.63;;;;;;;1.20;100.00;101043.56;5035564;28;20052;-72
2023/12/04 02:06:43;;;;;;;14.18;8.02;;;;;;;1.21;100.00;101048.72;5036115;28;20232;-72
2023/12/04 02:09:12;;;;;;;11.35;8.10;;;;;;;1.21;100.00;101048.72;5035687;28;20209;-72
2023/12/04 02:11:38;;;;;;;14.15;8.50;;;;;;;1.20;100.00;101038.41;5035611;28;20021;-72
2023/12/04 02:14:05;;;;;;;10.13;7.05;;;;;;;1.19;100.00;101034.97;5036095;28;20056;-72
2023/12/04 02:16:32;;;;;;;11.13;7.30;;;;;;;1.20;100.00;101028.97;5035928;28;20040;-72
2023/12/04 02:18:58;;;;;;;11.63;7.32;;;;;;;1.20;100.00;101033.25;5034714;28;20043;-72
2023/12/04 02:21:23;;;;;;;13.38;7.40;;;;;;;1.23;100.00;101020.34;5035977;28;20105;-72
2023/12/04 02:23:50;;;;;;;9.80;7.57;;;;;;;1.21;100.00;101020.34;5035003;28;20045;-72
2023/12/04 02:26:22;;;;;;;12.73;8.02;;;;;;;1.18;100.00;101016.91;5035327;28;20488;-72
2023/12/04 02:28:56;;;;;;;10.27;7.97;;;;;;;1.19;100.00;101021.22;5034797;28;20045;-72
2023/12/04 02:31:24;;;;;;;12.10;8.57;;;;;;;1.16;100.00;101019.47;5035427;28;20037;-72
2023/12/04 02:33:52;;;;;;;10.57;7.47;;;;;;;1.17;100.00;101008.31;5034801;28;20052;-72
2023/12/04 02:36:19;;;;;;;9.57;7.40;;;;;;;1.21;100.00;101001.44;5035583;28;20033;-72
2023/12/04 02:38:45;;;;;;;16.42;7.70;;;;;;;1.18;100.00;101001.44;5034853;28;20243;-72
2023/12/04 02:41:10;;;;;;;10.73;6.78;;;;;;;1.20;100.00;101000.59;5034904;28;20057;-72
2023/12/04 02:43:36;;;;;;;10.05;7.50;;;;;;;1.20;100.00;100992.84;5034846;28;20083;-72
2023/12/04 02:46:01;;;;;;;11.82;7.50;;;;;;;1.24;100.00;100988.53;5035492;28;20037;-72
2023/12/04 02:48:26;;;;;;;13.55;7.75;;;;;;;1.23;100.00;100986.81;5034906;28;20218;-72
2023/12/04 02:50:52;;;;;;;11.88;7.57;;;;;;;1.24;100.00;100985.97;5035631;28;20177;-72
2023/12/04 02:53:17;;;;;;;13.93;7.40;;;;;;;1.22;100.00;100985.09;5035132;28;20037;-72
2023/12/04 02:55:42;;;;;;;12.38;7.20;;;;;;;1.22;100.00;100980.81;5035237;28;20037;-72
2023/12/04 02:58:08;;;;;;;10.27;7.05;;;;;;;1.20;100.00;100972.22;5034946;28;20032;-72
2023/12/04 03:00:33;;;;;;;10.60;7.40;;;;;;;1.20;100.00;100972.22;5035318;28;20421;-72
2023/12/04 03:02:58;;;;;;;12.07;6.75;;;;;;;1.19;100.00;100973.06;5034479;28;20517;-72
2023/12/04 03:05:24;;;;;;;10.93;7.10;;;;;;;1.15;100.00;100964.44;5035356;28;20406;-72
2023/12/04 03:07:49;;;;;;;10.93;6.80;;;;;;;1.18;100.00;100955.00;5034684;28;20045;-72
2023/12/04 03:10:14;;;;;;;12.45;7.93;;;;;;;1.20;100.00;100955.84;5034951;28;20037;-72
2023/12/04 03:12:40;;;;;;;11.38;6.88;;;;;;;1.24;100.00;100944.69;5034705;28;20436;-72
2023/12/04 03:15:05;;;;;;;9.65;6.78;;;;;;;1.23;100.00;100942.97;5034830;28;20037;-72
2023/12/04 03:17:31;;;;;;;11.57;7.45;;;;;;;1.19;100.00;100936.09;5034045;28;20390;-72
2023/12/04 03:19:56;;;;;;;9.60;6.78;;;;;;;1.21;100.00;100932.63;5034594;28;20037;-72
2023/12/04 03:22:21;;;;;;;9.95;6.43;;;;;;;1.23;100.00;100923.16;5034626;28;20049;-72
2023/12/04 03:24:47;;;;;;;9.27;6.38;;;;;;;1.22;100.00;100918.00;5034078;28;20041;-72
2023/12/04 03:27:12;;;;;;;7.82;6.55;;;;;;;1.24;100.00;100917.16;5034190;28;20036;-72
2023/12/04 03:29:37;;;;;;;11.95;6.28;;;;;;;1.22;100.00;100907.69;5034348;28;20041;-72
2023/12/04 03:32:03;;;;;;;9.60;6.60;;;;;;;1.25;100.00;100910.28;5034879;28;20033;-72
2023/12/04 03:34:29;;;;;;;9.98;6.57;;;;;;;1.25;100.00;100897.38;5034368;28;20037;-72
2023/12/04 03:36:54;;;;;;;8.52;5.75;;;;;;;1.24;100.00;100906.00;5033670;28;20285;-72
2023/12/04 03:39:19;;;;;;;9.48;5.90;;;;;;;1.25;100.00;100898.22;5033697;28;20108;-72
2023/12/04 03:41:45;;;;;;;8.02;6.18;;;;;;;1.26;100.00;100892.22;5034196;28;20069;-72
2023/12/04 03:44:10;;;;;;;8.43;6.53;;;;;;;1.22;100.00;100887.94;5034680;28;20033;-72
2023/12/04 03:46:35;;;;;;;8.77;5.45;;;;;;;1.25;100.00;100885.31;5033418;28;20275;-72
2023/12/04 03:49:01;;;;;;;7.47;5.80;;;;;;;1.25;100.00;100887.91;5034050;28;20041;-72
2023/12/04 03:51:26;;;;;;;8.13;5.43;;;;;;;1.26;100.00;100884.47;5034158;28;20427;-72
2023/12/04 03:53:51;;;;;;;8.50;5.47;;;;;;;1.26;100.00;100891.34;5033473;28;20068;-72
2023/12/04 03:56:17;;;;;;;7.88;5.68;;;;;;;1.23;100.00;100883.63;5033973;28;20075;-72
2023/12/04 03:58:42;;;;;;;6.07;5.40;;;;;;;1.26;100.00;100881.03;5033257;28;20041;-72
2023/12/04 04:01:07;;;;;;;8.82;5.65;;;;;;;1.26;100.00;100876.72;5033748;28;20094;-72
2023/12/04 04:03:33;;;;;;;8.68;5.82;;;;;;;1.24;100.00;100862.97;5014813;28;20053;-72
2023/12/04 04:05:58;;;;;;;6.97;5.55;;;;;;;1.28;100.00;100854.34;5033567;28;20037;-72
2023/12/04 04:08:23;;;;;;;9.32;6.13;;;;;;;1.34;100.00;100854.34;5033360;28;20065;-72
2023/12/04 04:10:49;;;;;;;8.80;5.78;;;;;;;1.30;100.00;100852.63;5033875;28;20336;-72
2023/12/04 04:13:14;;;;;;;10.82;5.75;;;;;;;1.32;100.00;100852.63;5032695;28;20025;-72
2023/12/04 04:15:39;;;;;;;6.72;5.45;;;;;;;1.30;100.00;100850.06;5033732;28;20097;-72
2023/12/04 04:18:05;;;;;;;10.65;6.45;;;;;;;1.25;100.00;100851.78;5033142;28;20041;-72
2023/12/04 04:20:30;;;;;;;10.75;5.57;;;;;;;1.26;100.00;100843.19;5033448;28;20112;-72
2023/12/04 04:22:55;;;;;;;6.63;5.30;;;;;;;1.27;100.00;100846.63;5033449;28;20041;-72
2023/12/04 04:25:23;;;;;;;7.35;5.63;;;;;;;1.29;100.00;100839.72;5033737;28;20037;-72
2023/12/04 04:27:48;;;;;;;10.38;5.60;;;;;;;1.29;100.00;100834.56;5033334;28;20060;-72
2023/12/04 04:30:13;;;;;;;6.43;5.10;;;;;;;1.32;100.00;100829.41;5033673;28;20045;-72
2023/12/04 04:32:39;;;;;;;7.90;5.15;;;;;;;1.35;100.00;100829.41;5032495;28;20033;-72
2023/12/04 04:35:04;;;;;;;9.20;5.47;;;;;;;1.37;100.00;100837.16;5033337;28;20124;-72
2023/12/04 04:37:30;;;;;;;8.27;5.25;;;;;;;1.39;100.00;100838.00;5033557;28;20056;-72
2023/12/04 04:39:55;;;;;;;6.30;5.47;;;;;;;1.40;100.00;100832.84;5032992;28;20232;-72
2023/12/04 04:42:22;;;;;;;7.75;5.60;;;;;;;1.38;100.00;100833.69;5033205;28;20033;-72
2023/12/04 04:44:48;;;;;;;11.02;5.63;;;;;;;1.38;100.00;100831.97;5033224;28;20038;-72
2023/12/04 04:47:13;;;;;;;7.07;5.47;;;;;;;1.39;100.00;100830.25;5033237;28;20064;-72
2023/12/04 04:49:38;;;;;;;9.38;5.72;;;;;;;1.39;100.00;100817.34;5033233;28;20118;-72
2023/12/04 04:52:04;;;;;;;7.40;5.40;;;;;;;1.42;100.00;100813.03;5033220;28;20061;-72
2023/12/04 04:54:32;;;;;;;7.75;6.03;;;;;;;1.38;100.00;100815.63;5033452;28;20045;-72
2023/12/04 04:56:58;;;;;;;5.32;4.82;;;;;;;1.40;100.00;100806.16;5033343;28;20038;-72
2023/12/04 04:59:23;;;;;;;6.00;4.90;;;;;;;1.42;100.00;100801.84;5033313;28;20040;-72
2023/12/04 05:01:48;;;;;;;9.40;5.93;;;;;;;1.39;100.00;100802.72;5033030;28;20403;-72
2023/12/04 05:04:14;;;;;;;11.27;5.72;;;;;;;1.44;100.00;100798.41;5034307;28;20037;-72
2023/12/04 05:06:39;;;;;;;7.35;5.18;;;;;;;1.43;100.00;100788.94;5036402;28;20052;-72
2023/12/04 05:09:04;;;;;;;8.57;5.68;;;;;;;1.42;100.00;100788.94;5037034;28;20048;-72
2023/12/04 05:11:30;;;;;;;8.23;5.32;;;;;;;1.35;100.00;100780.38;5036784;28;20041;-72
2023/12/04 05:13:55;;;;;;;9.73;5.82;;;;;;;1.34;100.00;100778.66;5037126;28;20096;-72
2023/12/04 05:16:20;;;;;;;6.93;5.43;;;;;;;1.36;100.00;100776.91;5036865;28;20344;-72
2023/12/04 05:18:46;;;;;;;6.53;5.20;;;;;;;1.35;100.00;100780.38;5036112;28;20041;-72
2023/12/04 05:21:12;;;;;;;6.35;4.55;;;;;;;1.37;100.00;100776.06;5036570;28;20248;-72
2023/12/04 05:23:38;;;;;;;6.95;5.38;;;;;;;1.36;100.00;100763.16;5036029;28;20112;-72
2023/12/04 05:26:05;;;;;;;7.30;5.85;;;;;;;1.42;100.00;100760.56;5036554;28;20045;-72
2023/12/04 05:28:30;;;;;;;7.47;5.20;;;;;;;1.45;100.00;100760.53;5034885;28;20041;-72
2023/12/04 05:30:55;;;;;;;9.05;6.18;;;;;;;1.45;100.00;100758.81;5036967;28;20103;-72
2023/12/04 05:33:21;;;;;;;6.80;5.13;;;;;;;1.46;100.00;100751.94;5036913;28;20336;-72
2023/12/04 05:35:48;;;;;;;6.70;5.25;;;;;;;1.43;100.00;100760.53;5036690;28;20197;-72
2023/12/04 05:38:13;;;;;;;7.45;5.82;;;;;;;1.40;100.00;100765.75;5036443;28;20051;-72
2023/12/04 05:40:39;;;;;;;8.98;5.93;;;;;;;1.41;100.00;100771.75;5036650;28;20187;-72
2023/12/04 05:43:04;;;;;;;7.57;5.57;;;;;;;1.43;100.00;100757.97;5018432;28;20045;-72
2023/12/04 05:45:30;;;;;;;7.38;5.53;;;;;;;1.42;100.00;100770.88;5036279;28;20053;-72
2023/12/04 05:47:55;;;;;;;8.20;5.65;;;;;;;1.44;100.00;100774.34;5036093;28;20045;-72
2023/12/04 05:50:21;;;;;;;9.68;5.78;;;;;;;1.45;100.00;100769.13;5036194;28;20032;-72
2023/12/04 05:52:46;;;;;;;8.30;6.47;;;;;;;1.43;100.00;100763.13;5035589;28;20123;-72
2023/12/04 05:55:11;;;;;;;8.80;6.18;;;;;;;1.46;100.00;100752.81;5035837;28;20087;-72
2023/12/04 05:57:39;;;;;;;9.35;6.00;;;;;;;1.47;100.00;100758.81;5036004;28;20103;-72
2023/12/04 06:00:12;;;;;;;10.07;6.85;;;;;;;1.47;100.00;100759.66;5035799;28;20041;-72
2023/12/04 06:02:37;;;;;;;11.32;5.80;;;;;;;1.50;100.00;100763.97;5035778;28;20068;-72
2023/12/04 06:05:03;;;;;;;7.50;5.97;;;;;;;1.54;100.00;100765.66;5036057;28;20376;-72
2023/12/04 06:07:28;;;;;;;9.13;6.20;;;;;;;1.50;100.00;100746.75;5035483;28;20057;-72
2023/12/04 06:09:54;;;;;;;9.80;5.85;;;;;;;1.54;100.00;100755.34;5036274;28;20336;-72
2023/12/04 06:12:19;;;;;;;10.63;6.30;;;;;;;1.52;100.00;100742.44;5035650;28;20041;-72
2023/12/04 06:14:44;;;;;;;9.82;6.30;;;;;;;1.49;100.00;100742.47;5035962;28;20096;-72
2023/12/04 06:17:10;;;;;;;10.75;6.47;;;;;;;1.50;100.00;100733.84;5034615;28;20084;-72
2023/12/04 06:19:35;;;;;;;10.93;6.30;;;;;;;1.53;100.00;100727.81;5035340;28;20295;-72
2023/12/04 06:22:00;;;;;;;7.57;5.95;;;;;;;1.54;100.00;100727.78;5034313;28;20041;-72
2023/12/04 06:24:26;;;;;;;7.80;6.35;;;;;;;1.60;100.00;100726.94;5035396;28;20261;-72
2023/12/04 06:26:52;;;;;;;9.32;6.20;;;;;;;1.59;100.00;100724.34;5018898;28;20065;-72
2023/12/04 06:29:19;;;;;;;6.07;5.18;;;;;;;1.56;100.00;100712.31;5025849;28;20045;-72
2023/12/04 06:31:44;;;;;;;9.25;6.10;;;;;;;1.58;100.00;100709.72;5024686;28;20046;-72
2023/12/04 06:34:10;;;;;;;10.15;6.43;;;;;;;1.61;100.00;100710.56;5016193;28;20409;-72
2023/12/04 06:36:38;;;;;;;7.35;5.72;;;;;;;1.57;100.00;100714.03;5035072;28;20351;-72
2023/12/04 06:39:09;;;;;;;9.10;5.95;;;;;;;1.54;100.00;100716.63;5026727;28;20247;-72
2023/12/04 06:41:34;;;;;;;8.10;6.72;;;;;;;1.50;100.00;100707.19;5019289;28;20034;-72
2023/12/04 06:44:00;;;;;;;10.43;6.90;;;;;;;1.50;100.00;100707.19;5021043;28;20049;-72
2023/12/04 06:46:28;;;;;;;9.95;6.63;;;;;;;1.53;100.00;100700.28;5021641;28;20041;-72
2023/12/04 06:48:57;;;;;;;8.60;6.70;;;;;;;1.53;100.00;100697.69;5025843;28;20092;-72
2023/12/04 06:51:22;;;;;;;9.43;6.32;;;;;;;1.51;100.00;100698.56;5033409;28;20099;-72
2023/12/04 06:53:47;;;;;;;7.93;6.22;;;;;;;1.51;100.00;100703.72;5016465;28;20041;-72
2023/12/04 06:56:13;;;;;;;10.45;6.07;;;;;;;1.56;100.00;100707.13;5006628;28;20148;-72
2023/12/04 06:58:38;;;;;;;10.73;6.00;;;;;;;1.54;100.00;100706.28;5031401;28;20044;-72
2023/12/04 07:01:04;;;;;;;8.98;5.70;;;;;;;1.54;100.00;100701.13;5033415;28;20257;-72
2023/12/04 07:03:29;;;;;;;9.48;5.53;;;;;;;1.58;100.00;100699.38;5030104;28;20119;-72
2023/12/04 07:05:54;;;;;;;7.93;5.70;;;;;;;1.63;100.00;100698.50;5028452;28;20045;-72
2023/12/04 07:08:20;;;;;;;9.00;5.88;;;;;;;1.67;100.00;100683.84;5031935;28;20339;-72
2023/12/04 07:10:45;;;;;;;7.07;5.30;;;;;;;1.69;100.00;100688.16;5034658;28;20044;-72
2023/12/04 07:13:12;;;;;;;8.23;5.97;;;;;;;1.64;100.00;100697.63;5033358;28;20033;-72
2023/12/04 07:15:38;;;;;;;7.05;5.45;;;;;;;1.65;100.00;100678.69;5032719;28;20053;-72
2023/12/04 07:18:03;;;;;;;6.93;5.15;;;;;;;1.64;100.00;100689.06;5019385;28;20037;-72
2023/12/04 07:20:29;;;;;;;9.73;5.75;;;;;;;1.64;100.00;100678.72;5023093;28;20068;-72
2023/12/04 07:22:54;;;;;;;8.40;5.70;;;;;;;1.65;100.00;100676.09;5042949;28;20409;-72
2023/12/04 07:25:20;;;;;;;11.38;6.50;;;;;;;1.62;100.00;100670.97;5054494;28;20035;-72
2023/12/04 07:27:46;;;;;;;7.05;5.25;;;;;;;1.64;100.00;100663.22;5053960;28;20033;-72
2023/12/04 07:30:12;;;;;;;6.60;5.22;;;;;;;1.67;100.00;100669.22;5054030;28;20029;-72
2023/12/04 07:32:37;;;;;;;7.07;5.65;;;;;;;1.67;100.00;100665.78;5054165;28;20152;-72
2023/12/04 07:35:04;;;;;;;7.50;5.90;;;;;;;1.62;100.00;100659.78;5054140;28;20403;-72
2023/12/04 07:37:31;;;;;;;8.05;5.80;;;;;;;1.64;100.00;100658.06;5053101;28;20040;-72
2023/12/04 07:39:56;;;;;;;7.65;4.97;;;;;;;1.69;100.00;100661.44;5053212;28;20025;-72
2023/12/04 07:42:22;;;;;;;11.20;5.60;;;;;;;1.68;100.00;100663.19;5053074;28;20047;-72
2023/12/04 07:44:49;;;;;;;7.95;5.60;;;;;;;1.70;100.00;100665.75;5052668;28;20052;-72
2023/12/04 07:47:15;;;;;;;6.47;5.20;;;;;;;1.70;100.00;100650.28;5052976;28;20132;-72
2023/12/04 07:49:41;;;;;;;7.20;5.05;;;;;;;1.68;100.00;100658.03;5052056;28;20067;-72
2023/12/04 07:52:07;;;;;;;6.63;5.35;;;;;;;1.72;100.00;100657.13;5047185;28;20143;-72
2023/12/04 07:54:33;;;;;;;6.68;5.05;;;;;;;1.73;100.00;100660.59;5054022;28;20340;-72
2023/12/04 07:56:58;;;;;;;7.07;5.82;;;;;;;1.75;100.00;100652.81;5052777;28;20107;-72
2023/12/04 07:59:23;;;;;;;6.78;5.18;;;;;;;1.75;100.00;100669.19;5053594;28;20102;-72
2023/12/04 08:01:49;;;;;;;5.45;4.72;;;;;;;1.76;100.00;100688.09;5053552;28;20028;-72
2023/12/04 08:04:14;;;;;;;6.70;5.43;;;;;;;1.75;100.00;100686.38;5050401;28;20291;-72
2023/12/04 08:06:39;;;;;;;8.18;5.50;;;;;;;1.75;99.89;100681.19;5053034;28;20037;-72
2023/12/04 08:09:09;;;;;;;7.88;5.68;;;;;;;1.78;100.00;100682.03;5053083;28;20040;-72
2023/12/04 08:11:34;;;;;;;7.53;5.60;;;;;;;1.78;100.00;100676.03;5053095;28;20220;-72
2023/12/04 08:14:00;;;;;;;5.85;5.00;;;;;;;1.76;100.00;100670.88;5053285;28;20036;-72
2023/12/04 08:16:28;;;;;;;6.32;5.20;;;;;;;1.79;100.00;100664.84;5053738;28;20438;-72
2023/12/04 08:18:54;;;;;;;7.75;5.40;;;;;;;1.82;100.00;100669.97;5052523;28;20082;-72
2023/12/04 08:21:19;;;;;;;9.90;5.82;;;;;;;1.81;99.95;100660.53;5050138;28;20320;-72
2023/12/04 08:23:44;;;;;;;6.30;5.40;;;;;;;1.84;99.71;100655.34;5037931;28;20049;-72
2023/12/04 08:26:10;;;;;;;5.68;5.00;;;;;;;1.81;99.64;100661.38;5033654;28;20057;-72
2023/12/04 08:28:37;;;;;;;7.05;5.22;;;;;;;1.81;99.60;100661.38;5032239;28;20264;-72
2023/12/04 08:31:03;;;;;;;6.72;5.60;;;;;;;1.79;99.66;100657.94;5040559;28;20325;-72
2023/12/04 08:33:29;;;;;;;6.47;4.97;;;;;;;1.79;99.27;100657.09;5043836;28;20572;-72
2023/12/04 08:35:54;;;;;;;5.78;5.28;;;;;;;1.81;98.94;100642.44;5038552;28;20041;-72
2023/12/04 08:38:19;;;;;;;6.78;5.18;;;;;;;1.84;99.33;100640.69;5032692;28;20033;-72
2023/12/04 08:40:45;;;;;;;5.88;5.18;;;;;;;1.80;98.83;100639.00;5034823;28;20044;-72
2023/12/04 08:43:10;;;;;;;6.03;4.97;;;;;;;1.83;99.01;100635.53;5037072;28;20375;-72
2023/12/04 08:45:36;;;;;;;6.25;5.18;;;;;;;1.78;97.39;100632.13;5035445;28;20270;-72
2023/12/04 08:48:01;;;;;;;7.35;5.40;;;;;;;1.82;97.86;100626.06;5035623;28;20037;-72
2023/12/04 08:50:26;;;;;;;5.18;4.68;;;;;;;1.84;98.08;100621.78;5036885;28;20333;-72
2023/12/04 08:52:52;;;;;;;6.78;5.20;;;;;;;1.88;98.48;100623.44;5031798;28;20206;-72
2023/12/04 08:55:17;;;;;;;5.57;4.97;;;;;;;1.86;98.66;100614.88;5023672;28;20040;-72
2023/12/04 08:57:42;;;;;;;8.05;5.60;;;;;;;1.85;98.94;100611.41;5029630;28;20092;-72
2023/12/04 09:00:09;;;;;;;6.03;4.97;;;;;;;1.81;97.91;100614.88;5030562;28;20029;-72
2023/12/04 09:02:34;;;;;;;6.38;5.22;;;;;;;1.82;97.75;100610.56;5031527;28;20244;-72
2023/12/04 09:04:59;;;;;;;5.43;4.53;;;;;;;1.86;98.15;100615.72;5032084;28;20132;-72
2023/12/04 09:07:25;;;;;;;10.75;5.63;;;;;;;1.87;98.14;100606.22;5032234;28;20210;-72
2023/12/04 09:09:50;;;;;;;7.57;5.25;;;;;;;1.91;98.38;100605.31;5031839;28;20332;-72
2023/12/04 09:12:16;;;;;;;8.20;5.47;;;;;;;1.90;98.48;100606.22;5013960;28;20212;-72
2023/12/04 09:14:41;;;;;;;6.25;4.97;;;;;;;1.91;98.47;100605.31;5032139;28;20045;-72
2023/12/04 09:17:07;;;;;;;5.68;5.07;;;;;;;1.94;98.45;100610.47;5031700;28;20033;-72
2023/12/04 09:19:32;;;;;;;7.03;5.03;;;;;;;1.92;98.59;100609.63;5029977;28;20292;-72
2023/12/04 09:21:58;;;;;;;5.78;5.10;;;;;;;1.90;97.94;100612.22;5032497;28;20163;-72
2023/12/04 09:24:23;;;;;;;7.63;5.45;;;;;;;1.89;97.67;100617.41;5033942;28;20546;-72
2023/12/04 09:26:50;;;;;;;5.47;4.90;;;;;;;1.89;96.90;100623.44;5031640;28;20049;-72
2023/12/04 09:29:16;;;;;;;7.22;5.30;;;;;;;1.95;97.53;100619.94;5032370;28;20103;-72
2023/12/04 09:31:41;;;;;;;5.78;5.20;;;;;;;1.96;97.82;100616.47;5031547;28;20038;-72
2023/12/04 09:34:08;;;;;;;10.45;5.47;;;;;;;1.99;98.11;100618.19;5028696;28;20040;-72
2023/12/04 09:36:33;;;;;;;5.32;4.82;;;;;;;2.00;97.49;100613.03;5030503;28;20033;-72
2023/12/04 09:38:59;;;;;;;6.72;5.18;;;;;;;1.98;97.50;100611.31;5030932;28;20359;-72
2023/12/04 09:41:24;;;;;;;5.63;4.57;;;;;;;2.05;98.16;100610.38;5031739;28;20112;-72
2023/12/04 09:43:51;;;;;;;7.43;5.72;;;;;;;2.06;98.36;100604.34;5031315;28;20061;-72
2023/12/04 09:46:17;;;;;;;6.38;5.05;;;;;;;2.11;99.08;100606.03;5032850;28;20140;-72
2023/12/04 09:48:43;;;;;;;7.28;5.18;;;;;;;2.07;98.30;100601.75;5049091;28;20029;-72
2023/12/04 09:51:09;;;;;;;6.22;5.22;;;;;;;2.05;97.92;100598.31;5045206;28;20044;-72
2023/12/04 09:53:35;;;;;;;7.18;5.35;;;;;;;2.04;98.06;100594.03;5045865;28;20020;-72
2023/12/04 09:56:03;;;;;;;9.43;5.40;;;;;;;2.02;97.07;100589.72;5040990;28;20057;-72
2023/12/04 09:58:32;;;;;;;5.00;4.57;;;;;;;2.02;97.31;100585.44;5031142;28;20041;-72
2023/12/04 10:00:59;;;;;;;5.95;5.25;;;;;;;2.08;97.81;100581.94;5031255;28;20127;-72
2023/12/04 10:03:25;;;;;;;6.90;5.50;;;;;;;2.06;97.19;100578.53;5032955;28;20065;-72
2023/12/04 10:05:50;;;;;;;8.05;5.32;;;;;;;2.05;96.87;100579.38;5030208;28;20115;-72
2023/12/04 10:08:17;;;;;;;5.85;5.13;;;;;;;2.06;97.42;100576.78;5030661;28;20206;-72
2023/12/04 10:10:43;;;;;;;5.18;4.68;;;;;;;2.08;97.39;100569.88;5030467;28;20061;-72
2023/12/04 10:13:08;;;;;;;7.28;4.85;;;;;;;2.08;97.07;100566.44;5031112;28;20044;-72
2023/12/04 10:15:45;;;;;;;6.40;5.00;;;;;;;2.09;96.84;100558.69;5047122;28;20032;-72
2023/12/04 10:18:27;;;;;;;6.95;5.18;;;;;;;2.07;95.70;100560.44;5047921;28;20217;-72
2023/12/04 10:20:54;;;;;;;6.85;4.88;;;;;;;2.14;95.91;100556.03;5048204;28;20060;-72
2023/12/04 10:23:20;;;;;;;6.38;5.07;;;;;;;2.16;95.98;100551.69;5049671;28;20055;-72
2023/12/04 10:25:45;;;;;;;8.80;5.50;;;;;;;2.20;96.59;100545.66;5043403;28;20025;-73
2023/12/04 10:28:12;;;;;;;5.65;4.78;;;;;;;2.23;96.77;100539.59;5047564;28;20253;-72
2023/12/04 10:30:38;;;;;;;9.20;5.35;;;;;;;2.23;96.19;100530.09;5047333;28;20031;-72
2023/12/04 10:33:05;;;;;;;7.53;5.18;;;;;;;2.26;96.24;100522.31;5041209;28;20032;-72
2023/12/04 10:35:32;;;;;;;5.25;4.80;;;;;;;2.26;96.25;100527.50;5031080;28;20022;-72
2023/12/04 10:38:02;;;;;;;6.90;4.80;;;;;;;2.33;96.48;100517.94;5029343;28;20240;-72
2023/12/04 10:40:32;;;;;;;5.93;5.03;;;;;;;2.33;96.42;100519.66;5046475;28;20033;-72
2023/12/04 10:43:17;;;;;;;5.35;4.70;;;;;;;2.36;96.39;100522.22;5040144;28;20336;-72
2023/12/04 10:45:45;;;;;;;6.15;4.60;;;;;;;2.42;96.73;100514.38;5011115;28;20057;-72
2023/12/04 10:48:12;;;;;;;6.15;4.70;;;;;;;2.42;96.75;100514.38;5025933;28;20137;-72
2023/12/04 10:50:39;;;;;;;6.95;4.60;;;;;;;2.46;96.94;100510.91;5028927;28;20487;-72
2023/12/04 10:53:05;;;;;;;5.15;4.60;;;;;;;2.48;97.51;100509.16;5029245;28;20033;-72
2023/12/04 10:55:31;;;;;;;6.05;5.03;;;;;;;2.47;97.86;100495.38;5029051;28;20119;-72
2023/12/04 10:57:59;;;;;;;5.38;4.88;;;;;;;2.46;97.56;100487.63;5029356;28;20018;-72
2023/12/04 11:00:27;;;;;;;5.55;4.47;;;;;;;2.46;97.03;100485.03;5025850;28;20036;-72
2023/12/04 11:02:56;;;;;;;9.20;4.72;;;;;;;2.46;96.80;100480.72;5028610;28;20069;-72
2023/12/04 11:05:23;;;;;;;5.40;4.63;;;;;;;2.45;96.62;100486.75;5030598;28;20040;-72
2023/12/04 11:07:56;;;;;;;10.18;4.43;;;;;;;2.50;96.54;100486.72;5029426;28;20352;-72
2023/12/04 11:10:26;;;;;;;6.13;4.63;;;;;;;2.50;97.00;100491.88;5030309;28;20312;-72
2023/12/04 11:13:00;;;;;;;4.82;4.43;;;;;;;2.51;96.93;100485.84;5030089;28;20033;-72
2023/12/04 11:15:29;;;;;;;5.20;4.70;;;;;;;2.51;96.56;100483.25;5030416;28;20337;-72
2023/12/04 11:17:59;;;;;;;5.05;4.60;;;;;;;2.51;96.55;100478.09;5030342;28;20086;-72